createdAt,value
2023-04-30T00:01:30.137Z,7.70
2023-04-30T00:03:57.400Z,7.60
2023-04-30T00:06:26.252Z,7.50
2023-04-30T00:08:55.721Z,7.50
2023-04-30T00:11:22.846Z,7.50
2023-04-30T00:13:49.986Z,7.50
2023-04-30T00:16:17.179Z,7.50
2023-04-30T00:18:44.693Z,7.50
2023-04-30T00:21:12.724Z,7.50
2023-04-30T00:23:40.601Z,7.50
2023-04-30T00:26:07.739Z,7.50
2023-04-30T00:28:35.054Z,7.50
2023-04-30T00:31:02.764Z,7.60
2023-04-30T00:33:29.888Z,7.60
2023-04-30T00:35:56.999Z,7.60
2023-04-30T00:38:24.408Z,7.60
2023-04-30T00:40:52.425Z,7.60
2023-04-30T00:43:19.568Z,7.70
2023-04-30T00:45:46.776Z,7.70
2023-04-30T00:48:14.041Z,7.70
2023-04-30T00:50:41.824Z,7.70
2023-04-30T00:53:09.038Z,7.70
2023-04-30T00:55:36.605Z,7.70
2023-04-30T00:58:03.689Z,7.70
2023-04-30T01:00:31.363Z,7.70
2023-04-30T01:02:58.851Z,7.70
2023-04-30T01:05:26.425Z,7.70
2023-04-30T01:07:55.075Z,7.70
2023-04-30T01:10:29.208Z,7.70
2023-04-30T01:13:04.280Z,7.60
2023-04-30T01:15:37.903Z,7.60
2023-04-30T01:18:28.627Z,7.60
2023-04-30T01:21:04.794Z,7.60
2023-04-30T01:23:38.092Z,7.60
2023-04-30T01:26:17.818Z,7.60
2023-04-30T01:28:46.684Z,7.60
2023-04-30T01:31:20.239Z,7.60
2023-04-30T01:33:47.547Z,7.50
2023-04-30T01:36:35.707Z,7.50
2023-04-30T01:39:51.195Z,7.50
2023-04-30T01:42:25.978Z,7.50
2023-04-30T01:45:29.059Z,7.50
2023-04-30T01:48:11.485Z,7.50
2023-04-30T01:51:02.385Z,7.50
2023-04-30T01:53:40.271Z,7.50
2023-04-30T01:56:13.044Z,7.50
2023-04-30T01:58:41.333Z,7.50
2023-04-30T02:01:09.644Z,7.50
2023-04-30T02:03:37.116Z,7.50
2023-04-30T02:06:04.557Z,7.50
2023-04-30T02:08:31.808Z,7.50
2023-04-30T02:10:58.876Z,7.50
2023-04-30T02:13:26.015Z,7.50
2023-04-30T02:15:53.234Z,7.60
2023-04-30T02:18:20.669Z,7.60
2023-04-30T02:20:47.864Z,7.60
2023-04-30T02:23:16.190Z,7.60
2023-04-30T02:25:43.360Z,7.60
2023-04-30T02:28:10.456Z,7.60
2023-04-30T02:30:37.584Z,7.60
2023-04-30T02:33:06.037Z,7.70
2023-04-30T02:35:34.815Z,7.70
2023-04-30T02:38:01.984Z,7.70
2023-04-30T02:40:29.175Z,7.70
2023-04-30T02:42:56.942Z,7.70
2023-04-30T02:45:24.126Z,7.70
2023-04-30T02:47:51.372Z,7.70
2023-04-30T02:50:18.556Z,7.70
2023-04-30T02:52:49.644Z,7.70
2023-04-30T02:55:17.395Z,7.70
2023-04-30T02:57:44.522Z,7.70
2023-04-30T03:00:12.804Z,7.70
2023-04-30T03:02:40.418Z,7.70
2023-04-30T03:05:08.287Z,7.70
2023-04-30T03:07:35.507Z,7.70
2023-04-30T03:10:03.013Z,7.70
2023-04-30T03:12:30.090Z,7.70
2023-04-30T03:14:57.342Z,7.70
2023-04-30T03:17:24.982Z,7.70
2023-04-30T03:19:52.352Z,7.70
2023-04-30T03:22:20.496Z,7.70
2023-04-30T03:24:47.584Z,7.70
2023-04-30T03:27:16.993Z,7.70
2023-04-30T03:29:44.371Z,7.70
2023-04-30T03:32:11.620Z,7.70
2023-04-30T03:34:38.883Z,7.70
2023-04-30T03:37:06.201Z,7.70
2023-04-30T03:39:33.458Z,7.70
2023-04-30T03:42:01.810Z,7.70
2023-04-30T03:44:29.213Z,7.70
2023-04-30T03:46:56.540Z,7.70
2023-04-30T03:49:23.621Z,7.70
2023-04-30T03:51:51.290Z,7.70
2023-04-30T03:54:18.518Z,7.70
2023-04-30T03:56:45.813Z,7.70
2023-04-30T03:59:13.204Z,7.70
2023-04-30T04:01:40.473Z,7.70
2023-04-30T04:04:09.069Z,7.70
2023-04-30T04:06:36.899Z,7.70
2023-04-30T04:09:05.023Z,7.70
2023-04-30T04:11:32.224Z,7.70
2023-04-30T04:14:01.328Z,7.70
2023-04-30T04:16:30.234Z,7.70
2023-04-30T04:18:59.728Z,7.70
2023-04-30T04:21:29.864Z,7.70
2023-04-30T04:24:01.301Z,7.70
2023-04-30T04:26:29.096Z,7.70
2023-04-30T04:28:56.408Z,7.70
2023-04-30T04:31:23.632Z,7.70
2023-04-30T04:33:58.217Z,7.70
2023-04-30T04:36:27.788Z,7.80
2023-04-30T04:39:03.116Z,7.80
2023-04-30T04:41:32.936Z,7.80
2023-04-30T04:44:02.021Z,7.80
2023-04-30T04:46:32.209Z,7.80
2023-04-30T04:48:59.552Z,7.80
2023-04-30T04:51:27.091Z,7.80
2023-04-30T04:53:55.293Z,7.80
2023-04-30T04:56:22.539Z,7.80
2023-04-30T04:58:49.789Z,7.80
2023-04-30T05:01:17.775Z,7.80
2023-04-30T05:03:47.631Z,7.80
2023-04-30T05:06:15.300Z,7.80
2023-04-30T05:08:42.744Z,7.80
2023-04-30T05:11:10.461Z,7.80
2023-04-30T05:13:37.748Z,7.90
2023-04-30T05:16:05.331Z,7.90
2023-04-30T05:18:32.599Z,7.90
2023-04-30T05:20:59.806Z,7.90
2023-04-30T05:23:28.562Z,7.90
2023-04-30T05:25:55.936Z,7.90
2023-04-30T05:28:23.249Z,8.00
2023-04-30T05:30:50.485Z,8.00
2023-04-30T05:33:17.696Z,8.00
2023-04-30T05:35:45.022Z,8.00
2023-04-30T05:38:12.222Z,8.00
2023-04-30T05:40:39.440Z,8.00
2023-04-30T05:43:06.584Z,8.00
2023-04-30T05:45:33.908Z,8.00
2023-04-30T05:48:02.272Z,8.00
2023-04-30T05:50:29.545Z,8.10
2023-04-30T05:52:56.757Z,8.10
2023-04-30T05:55:23.934Z,8.10
2023-04-30T05:57:51.279Z,8.10
2023-04-30T06:00:18.578Z,8.10
2023-04-30T06:02:46.177Z,8.10
2023-04-30T06:05:15.882Z,8.20
2023-04-30T06:07:43.555Z,8.10
2023-04-30T06:10:11.105Z,8.10
2023-04-30T06:12:38.284Z,8.20
2023-04-30T06:15:06.913Z,8.20
2023-04-30T06:17:34.068Z,8.20
2023-04-30T06:20:06.429Z,8.20
2023-04-30T06:22:34.506Z,8.20
2023-04-30T06:25:01.857Z,8.10
2023-04-30T06:27:29.175Z,8.20
2023-04-30T06:29:58.041Z,8.20
2023-04-30T06:32:25.192Z,8.20
2023-04-30T06:34:52.518Z,8.20
2023-04-30T06:37:19.936Z,8.20
2023-04-30T06:39:47.202Z,8.20
2023-04-30T06:42:15.460Z,8.20
2023-04-30T06:44:43.306Z,8.20
2023-04-30T06:47:10.767Z,8.20
2023-04-30T06:49:37.983Z,8.20
2023-04-30T06:52:05.297Z,8.20
2023-04-30T06:54:32.385Z,8.20
2023-04-30T06:56:59.733Z,8.20
2023-04-30T06:59:27.262Z,8.20
2023-04-30T07:01:54.436Z,8.20
2023-04-30T07:04:21.759Z,8.20
2023-04-30T07:06:49.011Z,8.20
2023-04-30T07:09:16.289Z,8.20
2023-04-30T07:11:43.555Z,8.30
2023-04-30T07:14:10.908Z,8.30
2023-04-30T07:16:38.252Z,8.30
2023-04-30T07:19:05.330Z,8.30
2023-04-30T07:21:32.821Z,8.30
2023-04-30T07:23:59.971Z,8.30
2023-04-30T07:26:27.119Z,8.30
2023-04-30T07:28:54.362Z,8.30
2023-04-30T07:31:21.572Z,8.40
2023-04-30T07:33:50.639Z,8.40
2023-04-30T07:36:18.000Z,8.40
2023-04-30T07:38:45.198Z,8.40
2023-04-30T07:41:12.460Z,8.40
2023-04-30T07:43:39.673Z,8.40
2023-04-30T07:46:07.327Z,8.40
2023-04-30T07:48:38.931Z,8.40
2023-04-30T07:51:10.105Z,8.40
2023-04-30T07:53:40.806Z,8.40
2023-04-30T07:56:08.578Z,8.40
2023-04-30T07:58:36.960Z,8.40
2023-04-30T08:01:06.925Z,8.40
2023-04-30T08:03:34.305Z,8.40
2023-04-30T08:06:02.222Z,8.40
2023-04-30T08:08:29.798Z,8.40
2023-04-30T08:10:57.364Z,8.40
2023-04-30T08:13:24.508Z,8.40
2023-04-30T08:15:51.612Z,8.40
2023-04-30T08:18:21.543Z,8.40
2023-04-30T08:20:48.937Z,8.40
2023-04-30T08:23:17.122Z,8.40
2023-04-30T08:25:44.532Z,8.40
2023-04-30T08:28:11.703Z,8.40
2023-04-30T08:30:39.646Z,8.40
2023-04-30T08:33:06.911Z,8.40
2023-04-30T08:35:34.157Z,8.50
2023-04-30T08:38:01.347Z,8.50
2023-04-30T08:40:49.310Z,8.50
2023-04-30T08:43:18.267Z,8.50
2023-04-30T08:45:45.597Z,8.50
2023-04-30T08:48:16.715Z,8.50
2023-04-30T08:50:44.300Z,8.50
2023-04-30T08:53:13.322Z,8.50
2023-04-30T08:55:41.619Z,8.50
2023-04-30T08:58:10.885Z,8.50
2023-04-30T09:00:39.874Z,8.50
2023-04-30T09:03:08.418Z,8.50
2023-04-30T09:05:37.072Z,8.50
2023-04-30T09:08:04.666Z,8.50
2023-04-30T09:10:36.271Z,8.50
2023-04-30T09:13:05.677Z,8.50
2023-04-30T09:15:34.158Z,8.50
2023-04-30T09:18:18.736Z,8.50
2023-04-30T09:21:03.385Z,8.60
2023-04-30T09:23:31.152Z,8.60
2023-04-30T09:25:58.559Z,8.60
2023-04-30T09:28:27.413Z,8.60
2023-04-30T09:30:58.467Z,8.60
2023-04-30T09:33:25.733Z,8.70
2023-04-30T09:35:52.973Z,8.70
2023-04-30T09:38:33.187Z,8.70
2023-04-30T09:41:01.611Z,8.70
2023-04-30T09:43:29.884Z,8.70
2023-04-30T09:45:59.814Z,8.70
2023-04-30T09:48:28.518Z,8.70
2023-04-30T09:50:56.037Z,8.70
2023-04-30T09:53:24.370Z,8.70
2023-04-30T09:55:52.525Z,8.70
2023-04-30T09:58:20.742Z,8.70
2023-04-30T10:00:49.763Z,8.70
2023-04-30T10:03:17.284Z,8.80
2023-04-30T10:05:49.997Z,8.80
2023-04-30T10:08:34.287Z,8.90
2023-04-30T10:11:06.217Z,9.00
2023-04-30T10:13:44.179Z,8.90
2023-04-30T10:16:19.896Z,8.90
2023-04-30T10:18:52.094Z,8.90
2023-04-30T10:21:22.934Z,8.90
2023-04-30T10:23:50.861Z,8.90
2023-04-30T10:26:19.576Z,8.90
2023-04-30T10:28:50.753Z,8.90
2023-04-30T10:31:20.748Z,8.90
2023-04-30T10:38:29.926Z,9.00
2023-04-30T10:40:58.392Z,9.00
2023-04-30T10:43:26.616Z,9.10
2023-04-30T10:45:54.010Z,9.10
2023-04-30T10:48:27.412Z,9.10
2023-04-30T10:51:01.923Z,9.10
2023-04-30T10:53:34.223Z,9.10
2023-04-30T10:56:10.452Z,9.20
2023-04-30T10:58:41.288Z,9.20
2023-04-30T11:01:19.313Z,9.30
2023-04-30T11:04:06.424Z,9.40
2023-04-30T11:06:54.672Z,9.40
2023-04-30T11:09:46.436Z,9.40
2023-04-30T11:12:29.791Z,9.50
2023-04-30T11:15:33.559Z,9.50
2023-04-30T11:29:31.004Z,9.70
2023-04-30T11:32:01.463Z,9.80
2023-04-30T11:34:29.656Z,9.90
2023-04-30T11:37:00.263Z,9.90
2023-04-30T11:39:29.933Z,9.90
2023-04-30T11:41:58.120Z,10.00
2023-04-30T11:44:28.888Z,10.10
2023-04-30T11:46:56.303Z,10.10
2023-04-30T11:49:23.970Z,10.20
2023-04-30T11:51:52.105Z,10.30
2023-04-30T11:54:19.518Z,10.30
2023-04-30T11:56:50.885Z,10.20
2023-04-30T11:59:20.054Z,10.20
2023-04-30T12:01:47.586Z,10.30
2023-04-30T12:04:15.598Z,10.30
2023-04-30T12:06:43.344Z,10.30
2023-04-30T12:09:12.176Z,10.30
2023-04-30T12:11:39.833Z,10.30
2023-04-30T12:14:10.872Z,10.30
2023-04-30T12:16:51.125Z,10.30
2023-04-30T12:19:20.779Z,10.40
2023-04-30T12:21:49.846Z,10.30
2023-04-30T12:24:18.624Z,10.30
2023-04-30T12:26:46.271Z,10.30
2023-04-30T12:29:17.311Z,10.40
2023-04-30T12:31:45.935Z,10.40
2023-04-30T12:34:14.746Z,10.40
2023-04-30T12:36:45.141Z,10.40
2023-04-30T12:39:16.373Z,10.40
2023-04-30T12:41:46.293Z,10.40
2023-04-30T12:44:24.838Z,10.50
2023-04-30T12:47:01.042Z,10.50
2023-04-30T12:49:30.752Z,10.50
2023-04-30T12:52:04.195Z,10.50
2023-04-30T12:54:36.245Z,10.50
2023-04-30T12:57:09.195Z,10.60
2023-04-30T12:59:54.024Z,10.60
2023-04-30T13:02:25.809Z,10.70
2023-04-30T13:04:54.120Z,10.80
2023-04-30T13:07:22.082Z,10.90
2023-04-30T13:14:11.566Z,11.00
2023-04-30T13:16:40.190Z,11.20
2023-04-30T13:19:07.948Z,11.30
2023-04-30T13:21:35.247Z,11.50
2023-04-30T13:24:02.594Z,11.60
2023-04-30T13:26:29.962Z,11.70
2023-04-30T13:28:57.407Z,11.80
2023-04-30T13:31:24.688Z,11.80
2023-04-30T13:33:52.175Z,11.80
2023-04-30T13:36:19.344Z,11.80
2023-04-30T13:38:46.880Z,11.80
2023-04-30T13:41:14.548Z,11.70
2023-04-30T13:43:42.976Z,11.70
2023-04-30T13:46:10.955Z,11.70
2023-04-30T13:48:38.514Z,11.60
2023-04-30T13:51:08.470Z,11.60
2023-04-30T13:53:37.166Z,11.60
2023-04-30T13:56:04.918Z,11.60
2023-04-30T14:21:02.711Z,11.60
2023-04-30T14:41:17.700Z,11.90
2023-04-30T14:48:05.698Z,12.00
2023-04-30T15:04:09.655Z,12.10
2023-04-30T15:06:37.229Z,12.10
2023-04-30T15:09:04.372Z,12.10
2023-04-30T15:11:31.439Z,12.10
2023-04-30T15:13:58.605Z,12.10
2023-04-30T15:16:26.654Z,12.10
2023-04-30T15:18:54.439Z,12.00
2023-04-30T15:21:21.619Z,12.00
2023-04-30T15:23:49.860Z,12.00
2023-04-30T15:26:17.381Z,12.00
2023-04-30T15:28:44.724Z,12.00
2023-04-30T15:31:11.898Z,12.00
2023-04-30T15:33:42.297Z,12.00
2023-04-30T15:40:59.038Z,12.10
2023-04-30T15:47:52.577Z,12.20
2023-04-30T15:54:40.225Z,12.30
2023-04-30T16:01:33.302Z,12.40
2023-04-30T16:08:18.990Z,12.40
2023-04-30T16:19:37.944Z,12.40
2023-04-30T16:26:19.023Z,12.40
2023-04-30T16:29:37.308Z,12.40
2023-04-30T16:36:31.333Z,12.40
2023-04-30T16:43:17.551Z,12.40
2023-04-30T16:50:10.519Z,12.50
2023-04-30T16:57:00.208Z,12.60
2023-04-30T17:00:18.852Z,12.70
2023-04-30T17:02:48.926Z,12.70
2023-04-30T17:05:16.764Z,12.70
2023-04-30T17:07:44.798Z,12.70
2023-04-30T17:10:13.377Z,12.70
2023-04-30T17:12:41.111Z,12.70
2023-04-30T17:15:08.928Z,12.70
2023-04-30T17:17:36.092Z,12.70
2023-04-30T17:20:03.792Z,12.60
2023-04-30T17:22:31.041Z,12.60
2023-04-30T17:24:59.979Z,12.60
2023-04-30T17:27:27.896Z,12.60
2023-04-30T17:29:56.090Z,12.60
2023-04-30T17:32:23.541Z,12.50
2023-04-30T17:34:50.767Z,12.50
2023-04-30T17:37:18.374Z,12.50
2023-04-30T17:39:45.794Z,12.50
2023-04-30T17:42:15.856Z,12.50
2023-04-30T17:44:43.077Z,12.50
2023-04-30T17:47:10.589Z,12.50
2023-04-30T17:49:37.797Z,12.50
2023-04-30T17:52:06.398Z,12.50
2023-04-30T17:54:34.091Z,12.50
2023-04-30T17:57:01.262Z,12.50
2023-04-30T17:59:32.718Z,12.50
2023-04-30T18:02:00.008Z,12.50
2023-04-30T18:04:27.428Z,12.50
2023-04-30T18:06:54.723Z,12.50
2023-04-30T18:09:21.865Z,12.50
2023-04-30T18:11:49.577Z,12.50
2023-04-30T18:14:16.746Z,12.50
2023-04-30T18:16:44.064Z,12.50
2023-04-30T18:22:28.302Z,12.60
2023-04-30T18:24:55.520Z,12.60
2023-04-30T18:27:22.827Z,12.60
2023-04-30T18:29:50.476Z,12.70
2023-04-30T18:32:17.655Z,12.70
2023-04-30T18:34:44.974Z,12.70
2023-04-30T18:37:12.132Z,12.70
2023-04-30T18:39:39.277Z,12.70
2023-04-30T18:42:06.364Z,12.60
2023-04-30T18:44:33.798Z,12.60
2023-04-30T18:47:00.949Z,12.60
2023-04-30T18:49:28.064Z,12.60
2023-04-30T18:51:55.542Z,12.50
2023-04-30T18:54:22.797Z,12.50
2023-04-30T18:56:50.249Z,12.50
2023-04-30T18:59:17.908Z,12.40
2023-04-30T19:01:45.899Z,12.40
2023-04-30T19:04:13.774Z,12.40
2023-04-30T19:06:41.018Z,12.40
2023-04-30T19:09:09.419Z,12.40
2023-04-30T19:11:36.622Z,12.40
2023-04-30T19:14:04.042Z,12.40
2023-04-30T19:16:31.263Z,12.40
2023-04-30T19:18:58.482Z,12.40
2023-04-30T19:21:27.072Z,12.40
2023-04-30T19:23:54.634Z,12.40
2023-04-30T19:26:22.588Z,12.40
2023-04-30T19:28:49.793Z,12.40
2023-04-30T19:31:16.914Z,12.40
2023-04-30T19:33:44.241Z,12.40
2023-04-30T19:36:11.661Z,12.40
2023-04-30T19:38:38.972Z,12.40
2023-04-30T19:41:06.317Z,12.20
2023-04-30T19:43:33.469Z,12.30
2023-04-30T19:46:02.249Z,12.20
2023-04-30T19:48:31.493Z,12.20
2023-04-30T19:50:58.789Z,12.10
2023-04-30T19:53:26.013Z,12.10
2023-04-30T19:55:53.283Z,12.00
2023-04-30T19:58:20.747Z,12.00
2023-04-30T20:00:47.966Z,12.00
2023-04-30T20:03:16.818Z,11.90
2023-04-30T20:05:45.150Z,11.90
2023-04-30T20:08:12.509Z,11.80
2023-04-30T20:10:41.078Z,11.80
2023-04-30T20:13:09.501Z,11.80
2023-04-30T20:15:36.955Z,11.80
2023-04-30T20:18:06.074Z,11.70
2023-04-30T20:20:33.408Z,11.70
2023-04-30T20:23:12.072Z,11.60
2023-04-30T20:25:39.542Z,11.60
2023-04-30T20:28:07.150Z,11.60
2023-04-30T20:30:34.632Z,11.60
2023-04-30T20:33:02.087Z,11.50
2023-04-30T20:35:29.610Z,11.50
2023-04-30T20:37:56.864Z,11.50
2023-04-30T20:40:24.479Z,11.40
2023-04-30T20:42:51.784Z,11.40
2023-04-30T20:45:19.617Z,11.40
2023-04-30T20:47:46.914Z,11.40
2023-04-30T20:50:15.260Z,11.30
2023-04-30T20:52:43.254Z,11.30
2023-04-30T20:55:11.239Z,11.30
2023-04-30T20:57:38.556Z,11.30
2023-04-30T21:00:06.874Z,11.30
2023-04-30T21:02:34.389Z,11.30
2023-04-30T21:05:06.480Z,11.30
2023-04-30T21:07:36.819Z,11.30
2023-04-30T21:10:11.189Z,11.30
2023-04-30T21:12:38.372Z,11.30
2023-04-30T21:15:05.930Z,11.30
2023-04-30T21:17:33.076Z,11.30
2023-04-30T21:20:00.729Z,11.30
2023-04-30T21:22:27.915Z,11.30
2023-04-30T21:24:54.992Z,11.30
2023-04-30T21:27:22.803Z,11.30
2023-04-30T21:29:49.860Z,11.30
2023-04-30T21:32:17.112Z,11.30
2023-04-30T21:34:44.800Z,11.30
2023-04-30T21:37:11.957Z,11.30
2023-04-30T21:39:39.071Z,11.30
2023-04-30T21:42:06.620Z,11.30
2023-04-30T21:44:34.214Z,11.30
2023-04-30T21:47:01.287Z,11.30
2023-04-30T21:49:28.431Z,11.30
2023-04-30T21:51:55.893Z,11.40
2023-04-30T21:54:23.038Z,11.40
2023-04-30T21:56:50.159Z,11.40
2023-04-30T21:59:17.358Z,11.40
2023-04-30T22:01:44.588Z,11.40
2023-04-30T22:04:12.048Z,11.40
2023-04-30T22:06:39.288Z,11.40
2023-04-30T22:09:06.379Z,11.40
2023-04-30T22:11:33.486Z,11.40
2023-04-30T22:14:00.808Z,11.40
2023-04-30T22:16:28.079Z,11.40
2023-04-30T22:18:58.601Z,11.50
2023-04-30T22:21:26.262Z,11.40
2023-04-30T22:23:53.409Z,11.40
2023-04-30T22:26:22.689Z,11.40
2023-04-30T22:28:51.268Z,11.40
2023-04-30T22:31:18.852Z,11.40
2023-04-30T22:33:46.626Z,11.40
2023-04-30T22:36:13.802Z,11.30
2023-04-30T22:38:40.972Z,11.30
2023-04-30T22:41:08.644Z,11.20
2023-04-30T22:43:35.907Z,11.20
2023-04-30T22:46:03.494Z,11.20
2023-04-30T22:48:30.822Z,11.20
2023-04-30T22:50:58.810Z,11.10
2023-04-30T22:53:26.330Z,11.10
2023-04-30T22:55:55.043Z,11.10
2023-04-30T22:58:22.447Z,11.00
2023-04-30T23:00:49.740Z,11.00
2023-04-30T23:03:17.405Z,11.00
2023-04-30T23:05:44.948Z,11.00
2023-04-30T23:08:12.090Z,10.90
2023-04-30T23:10:39.154Z,10.90
2023-04-30T23:13:06.331Z,10.90
2023-04-30T23:15:33.460Z,10.90
2023-04-30T23:18:00.616Z,10.90
2023-04-30T23:20:28.467Z,10.90
2023-04-30T23:22:56.247Z,10.90
2023-04-30T23:25:23.416Z,10.90
2023-04-30T23:27:50.619Z,10.90
2023-04-30T23:30:17.868Z,10.90
2023-04-30T23:32:45.106Z,10.90
2023-04-30T23:35:12.455Z,10.90
2023-04-30T23:37:39.592Z,10.80
2023-04-30T23:40:07.628Z,10.80
2023-04-30T23:42:34.928Z,10.80
2023-04-30T23:45:02.070Z,10.80
2023-04-30T23:47:30.618Z,10.80
2023-04-30T23:49:57.973Z,10.80
2023-04-30T23:52:25.314Z,10.80
2023-04-30T23:54:52.684Z,10.80
2023-04-30T23:57:20.033Z,10.80
2023-04-30T23:59:47.312Z,10.80
